Archival Weather

Chicago O'Hare International

Chicago, Illinois (KORD)

Report from: Wednesday, March 27, 2024 9:51 PM CDT
Current time: Tuesday, May 21, 2024 12:16 PM CDT

Current weather – Weather history – Daily summaries
Weather forecast

Temperature2.2°C (36.0°F)
Wind chill-0.5°C (31.1°F)
Dew point-4.4°C (24.1°F)
Winds 5 kts (2.6 m/s, 5.8 mph) West-Southwest (240°)
Visibility10 mi. (16.1 km)
Clouds Sky clear
Altimeter30.09 in.Hg (1019 mB)
Relative humidity62 %
Density altitude-1,706 ft. (-520 m)
Sea-level pressure102.0 kPa (1020 mB, 30.11 in.Hg)
Remarks Automated weather observing station with precipitation discriminator
Pressure rising
Flight conditions Visual Meteorological Conditions
Raw dataKORD 280251Z 24005KT 10SM CLR 02/M04 A3009 RMK AO2 SLP197 T00221044 52003
An error has occurred. This application may no longer respond until reloaded. Reload 🗙